sensor_id;sensor_type;location;lat;lon;timestamp;P1;durP1;ratioP1;P2;durP2;ratioP2
36441;SDS011;64346;50.820;16.274;2023-02-03T00:00:06;13.82;;;5.30;;
36441;SDS011;64346;50.820;16.274;2023-02-03T00:02:56;12.45;;;4.75;;
36441;SDS011;64346;50.820;16.274;2023-02-03T00:05:23;12.35;;;4.63;;
36441;SDS011;64346;50.820;16.274;2023-02-03T00:07:51;14.27;;;5.95;;
36441;SDS011;64346;50.820;16.274;2023-02-03T00:10:19;19.67;;;8.55;;
36441;SDS011;64346;50.820;16.274;2023-02-03T00:12:50;15.38;;;7.40;;
36441;SDS011;64346;50.820;16.274;2023-02-03T00:15:18;18.90;;;7.70;;
36441;SDS011;64346;50.820;16.274;2023-02-03T00:17:45;17.20;;;7.35;;
36441;SDS011;64346;50.820;16.274;2023-02-03T00:20:12;18.98;;;8.05;;
36441;SDS011;64346;50.820;16.274;2023-02-03T00:22:42;19.67;;;7.38;;
36441;SDS011;64346;50.820;16.274;2023-02-03T00:25:09;20.52;;;7.68;;
36441;SDS011;64346;50.820;16.274;2023-02-03T00:27:36;17.52;;;7.13;;
36441;SDS011;64346;50.820;16.274;2023-02-03T00:30:03;21.42;;;7.82;;
36441;SDS011;64346;50.820;16.274;2023-02-03T00:32:33;17.25;;;7.47;;
36441;SDS011;64346;50.820;16.274;2023-02-03T00:35:03;17.63;;;8.27;;
36441;SDS011;64346;50.820;16.274;2023-02-03T00:37:31;21.90;;;7.55;;
36441;SDS011;64346;50.820;16.274;2023-02-03T00:39:58;16.10;;;7.22;;
36441;SDS011;64346;50.820;16.274;2023-02-03T00:42:25;15.38;;;7.55;;
36441;SDS011;64346;50.820;16.274;2023-02-03T00:44:55;15.90;;;7.07;;
36441;SDS011;64346;50.820;16.274;2023-02-03T00:47:22;17.98;;;7.10;;
36441;SDS011;64346;50.820;16.274;2023-02-03T00:49:50;17.30;;;6.82;;
36441;SDS011;64346;50.820;16.274;2023-02-03T00:52:17;15.27;;;5.30;;
36441;SDS011;64346;50.820;16.274;2023-02-03T00:54:44;13.48;;;4.85;;
36441;SDS011;64346;50.820;16.274;2023-02-03T00:57:11;15.13;;;5.70;;
36441;SDS011;64346;50.820;16.274;2023-02-03T00:59:39;14.07;;;5.35;;
36441;SDS011;64346;50.820;16.274;2023-02-03T01:02:06;17.27;;;6.88;;
36441;SDS011;64346;50.820;16.274;2023-02-03T01:04:34;16.33;;;6.68;;
36441;SDS011;64346;50.820;16.274;2023-02-03T01:07:01;17.20;;;7.07;;
36441;SDS011;64346;50.820;16.274;2023-02-03T01:09:31;23.67;;;9.93;;
36441;SDS011;64346;50.820;16.274;2023-02-03T01:12:02;23.55;;;10.07;;
36441;SDS011;64346;50.820;16.274;2023-02-03T01:14:33;23.90;;;9.45;;
36441;SDS011;64346;50.820;16.274;2023-02-03T01:17:02;21.35;;;9.88;;
36441;SDS011;64346;50.820;16.274;2023-02-03T01:19:30;20.58;;;8.77;;
36441;SDS011;64346;50.820;16.274;2023-02-03T01:21:57;23.45;;;9.55;;
36441;SDS011;64346;50.820;16.274;2023-02-03T01:24:24;22.98;;;9.00;;
36441;SDS011;64346;50.820;16.274;2023-02-03T01:26:51;22.02;;;10.50;;
36441;SDS011;64346;50.820;16.274;2023-02-03T01:29:19;25.30;;;11.07;;
36441;SDS011;64346;50.820;16.274;2023-02-03T01:31:48;24.98;;;10.75;;
36441;SDS011;64346;50.820;16.274;2023-02-03T01:34:19;25.50;;;9.75;;
36441;SDS011;64346;50.820;16.274;2023-02-03T01:36:48;21.05;;;9.52;;
36441;SDS011;64346;50.820;16.274;2023-02-03T01:39:18;22.65;;;9.43;;
36441;SDS011;64346;50.820;16.274;2023-02-03T01:41:45;24.55;;;9.00;;
36441;SDS011;64346;50.820;16.274;2023-02-03T01:47:27;23.45;;;8.93;;
36441;SDS011;64346;50.820;16.274;2023-02-03T01:50:18;19.95;;;8.05;;
36441;SDS011;64346;50.820;16.274;2023-02-03T01:52:55;24.08;;;7.78;;
36441;SDS011;64346;50.820;16.274;2023-02-03T01:55:35;20.23;;;7.88;;
36441;SDS011;64346;50.820;16.274;2023-02-03T02:00:35;17.10;;;6.80;;
36441;SDS011;64346;50.820;16.274;2023-02-03T02:03:05;18.88;;;7.60;;
36441;SDS011;64346;50.820;16.274;2023-02-03T02:05:37;18.55;;;7.22;;
36441;SDS011;64346;50.820;16.274;2023-02-03T02:08:04;18.02;;;6.57;;
36441;SDS011;64346;50.820;16.274;2023-02-03T02:10:36;20.02;;;8.20;;
36441;SDS011;64346;50.820;16.274;2023-02-03T02:13:04;20.17;;;8.00;;
36441;SDS011;64346;50.820;16.274;2023-02-03T02:16:15;20.88;;;8.88;;
36441;SDS011;64346;50.820;16.274;2023-02-03T02:46:25;19.33;;;7.03;;
36441;SDS011;64346;50.820;16.274;2023-02-03T02:52:02;18.88;;;6.55;;
36441;SDS011;64346;50.820;16.274;2023-02-03T02:54:31;18.42;;;6.93;;
36441;SDS011;64346;50.820;16.274;2023-02-03T02:57:04;17.83;;;5.90;;
36441;SDS011;64346;50.820;16.274;2023-02-03T02:59:34;23.00;;;7.25;;
36441;SDS011;64346;50.820;16.274;2023-02-03T03:02:04;27.15;;;9.27;;
36441;SDS011;64346;50.820;16.274;2023-02-03T03:04:31;23.08;;;9.02;;
36441;SDS011;64346;50.820;16.274;2023-02-03T03:07:02;22.38;;;8.18;;
36441;SDS011;64346;50.820;16.274;2023-02-03T03:09:56;23.00;;;8.38;;
36441;SDS011;64346;50.820;16.274;2023-02-03T03:12:38;13.18;;;5.78;;
36441;SDS011;64346;50.820;16.274;2023-02-03T03:15:14;14.85;;;5.72;;
36441;SDS011;64346;50.820;16.274;2023-02-03T03:17:50;14.30;;;5.15;;
36441;SDS011;64346;50.820;16.274;2023-02-03T03:20:30;15.18;;;5.35;;
36441;SDS011;64346;50.820;16.274;2023-02-03T03:23:00;11.68;;;4.55;;
36441;SDS011;64346;50.820;16.274;2023-02-03T03:25:38;14.75;;;4.90;;
36441;SDS011;64346;50.820;16.274;2023-02-03T03:28:11;10.43;;;4.60;;
36441;SDS011;64346;50.820;16.274;2023-02-03T03:30:48;11.07;;;4.75;;
36441;SDS011;64346;50.820;16.274;2023-02-03T03:33:15;11.63;;;4.88;;
36441;SDS011;64346;50.820;16.274;2023-02-03T03:35:53;11.73;;;4.25;;
36441;SDS011;64346;50.820;16.274;2023-02-03T03:38:41;14.02;;;4.60;;
36441;SDS011;64346;50.820;16.274;2023-02-03T03:44:02;9.45;;;3.72;;
36441;SDS011;64346;50.820;16.274;2023-02-03T03:46:34;14.27;;;5.03;;
36441;SDS011;64346;50.820;16.274;2023-02-03T03:49:07;12.48;;;4.18;;
36441;SDS011;64346;50.820;16.274;2023-02-03T03:51:41;14.20;;;4.70;;
36441;SDS011;64346;50.820;16.274;2023-02-03T03:54:14;15.82;;;4.78;;
36441;SDS011;64346;50.820;16.274;2023-02-03T03:56:53;16.13;;;7.13;;
36441;SDS011;64346;50.820;16.274;2023-02-03T03:59:27;12.88;;;4.78;;
36441;SDS011;64346;50.820;16.274;2023-02-03T04:04:34;10.55;;;4.05;;
36441;SDS011;64346;50.820;16.274;2023-02-03T04:07:05;12.40;;;4.22;;
36441;SDS011;64346;50.820;16.274;2023-02-03T04:09:32;12.77;;;4.13;;
36441;SDS011;64346;50.820;16.274;2023-02-03T04:12:00;12.10;;;4.28;;
36441;SDS011;64346;50.820;16.274;2023-02-03T04:14:34;13.95;;;4.00;;
36441;SDS011;64346;50.820;16.274;2023-02-03T04:17:02;9.43;;;3.60;;
36441;SDS011;64346;50.820;16.274;2023-02-03T04:19:29;9.85;;;3.75;;
36441;SDS011;64346;50.820;16.274;2023-02-03T04:21:57;12.98;;;4.55;;
36441;SDS011;64346;50.820;16.274;2023-02-03T04:24:24;11.15;;;4.07;;
36441;SDS011;64346;50.820;16.274;2023-02-03T04:26:51;16.95;;;4.63;;
36441;SDS011;64346;50.820;16.274;2023-02-03T04:29:21;12.88;;;5.00;;
36441;SDS011;64346;50.820;16.274;2023-02-03T04:31:48;12.18;;;5.65;;
36441;SDS011;64346;50.820;16.274;2023-02-03T04:34:15;10.45;;;4.65;;
36441;SDS011;64346;50.820;16.274;2023-02-03T04:36:42;11.90;;;4.90;;
36441;SDS011;64346;50.820;16.274;2023-02-03T04:39:10;11.70;;;5.28;;
36441;SDS011;64346;50.820;16.274;2023-02-03T04:41:39;12.27;;;4.55;;
36441;SDS011;64346;50.820;16.274;2023-02-03T04:44:09;11.82;;;5.25;;
36441;SDS011;64346;50.820;16.274;2023-02-03T04:46:38;11.35;;;4.82;;
36441;SDS011;64346;50.820;16.274;2023-02-03T04:49:05;11.40;;;4.60;;
36441;SDS011;64346;50.820;16.274;2023-02-03T04:51:33;13.63;;;6.00;;
36441;SDS011;64346;50.820;16.274;2023-02-03T04:54:00;12.50;;;6.10;;
36441;SDS011;64346;50.820;16.274;2023-02-03T04:56:27;14.93;;;6.10;;
36441;SDS011;64346;50.820;16.274;2023-02-03T04:58:54;12.35;;;6.40;;
36441;SDS011;64346;50.820;16.274;2023-02-03T05:01:22;14.48;;;6.97;;
36441;SDS011;64346;50.820;16.274;2023-02-03T05:03:49;21.45;;;9.40;;
36441;SDS011;64346;50.820;16.274;2023-02-03T05:06:19;19.95;;;9.43;;
36441;SDS011;64346;50.820;16.274;2023-02-03T05:08:52;20.00;;;9.27;;
36441;SDS011;64346;50.820;16.274;2023-02-03T05:11:20;16.55;;;7.18;;
36441;SDS011;64346;50.820;16.274;2023-02-03T05:13:48;16.30;;;6.78;;
36441;SDS011;64346;50.820;16.274;2023-02-03T05:16:18;16.65;;;6.38;;
36441;SDS011;64346;50.820;16.274;2023-02-03T05:18:46;13.00;;;6.32;;
36441;SDS011;64346;50.820;16.274;2023-02-03T05:21:13;12.90;;;5.65;;
36441;SDS011;64346;50.820;16.274;2023-02-03T05:23:40;11.85;;;6.10;;
36441;SDS011;64346;50.820;16.274;2023-02-03T05:26:08;14.77;;;6.32;;
36441;SDS011;64346;50.820;16.274;2023-02-03T05:28:37;10.90;;;5.18;;
36441;SDS011;64346;50.820;16.274;2023-02-03T05:31:05;11.73;;;5.50;;
36441;SDS011;64346;50.820;16.274;2023-02-03T05:33:32;13.68;;;5.55;;
36441;SDS011;64346;50.820;16.274;2023-02-03T05:36:00;9.02;;;5.03;;
36441;SDS011;64346;50.820;16.274;2023-02-03T05:38:27;12.05;;;5.43;;
36441;SDS011;64346;50.820;16.274;2023-02-03T05:40:57;10.15;;;4.82;;
36441;SDS011;64346;50.820;16.274;2023-02-03T05:43:26;9.52;;;4.78;;
36441;SDS011;64346;50.820;16.274;2023-02-03T05:45:56;10.88;;;4.72;;
36441;SDS011;64346;50.820;16.274;2023-02-03T05:48:26;11.60;;;5.05;;
36441;SDS011;64346;50.820;16.274;2023-02-03T05:50:53;10.73;;;5.00;;
36441;SDS011;64346;50.820;16.274;2023-02-03T05:53:21;10.63;;;4.10;;
36441;SDS011;64346;50.820;16.274;2023-02-03T05:55:49;8.30;;;3.53;;
36441;SDS011;64346;50.820;16.274;2023-02-03T05:58:18;9.07;;;3.75;;
36441;SDS011;64346;50.820;16.274;2023-02-03T06:00:48;9.35;;;3.83;;
36441;SDS011;64346;50.820;16.274;2023-02-03T06:03:15;8.52;;;3.90;;
36441;SDS011;64346;50.820;16.274;2023-02-03T06:05:42;7.25;;;3.47;;
36441;SDS011;64346;50.820;16.274;2023-02-03T06:08:10;9.00;;;3.60;;
36441;SDS011;64346;50.820;16.274;2023-02-03T06:10:37;9.50;;;3.90;;
36441;SDS011;64346;50.820;16.274;2023-02-03T06:13:11;9.77;;;3.35;;
36441;SDS011;64346;50.820;16.274;2023-02-03T06:15:41;9.65;;;3.67;;
36441;SDS011;64346;50.820;16.274;2023-02-03T06:18:13;6.75;;;2.70;;
36441;SDS011;64346;50.820;16.274;2023-02-03T06:20:41;6.20;;;2.97;;
36441;SDS011;64346;50.820;16.274;2023-02-03T06:23:08;3.65;;;2.00;;
36441;SDS011;64346;50.820;16.274;2023-02-03T06:25:35;6.80;;;2.40;;
36441;SDS011;64346;50.820;16.274;2023-02-03T06:28:05;5.78;;;2.47;;
36441;SDS011;64346;50.820;16.274;2023-02-03T06:30:32;6.25;;;2.17;;
36441;SDS011;64346;50.820;16.274;2023-02-03T06:33:02;7.07;;;2.50;;
36441;SDS011;64346;50.820;16.274;2023-02-03T06:35:32;8.43;;;2.63;;
36441;SDS011;64346;50.820;16.274;2023-02-03T06:38:01;5.95;;;2.10;;
36441;SDS011;64346;50.820;16.274;2023-02-03T06:40:29;4.57;;;2.05;;
36441;SDS011;64346;50.820;16.274;2023-02-03T06:42:56;4.10;;;1.90;;
36441;SDS011;64346;50.820;16.274;2023-02-03T06:45:24;3.13;;;1.60;;
36441;SDS011;64346;50.820;16.274;2023-02-03T06:47:53;3.35;;;1.73;;
36441;SDS011;64346;50.820;16.274;2023-02-03T06:50:20;3.58;;;1.80;;
36441;SDS011;64346;50.820;16.274;2023-02-03T06:52:50;5.75;;;2.50;;
36441;SDS011;64346;50.820;16.274;2023-02-03T06:55:20;4.63;;;1.80;;
36441;SDS011;64346;50.820;16.274;2023-02-03T06:57:49;4.28;;;1.65;;
36441;SDS011;64346;50.820;16.274;2023-02-03T07:00:19;1.73;;;1.23;;
36441;SDS011;64346;50.820;16.274;2023-02-03T07:02:55;4.30;;;2.05;;
36441;SDS011;64346;50.820;16.274;2023-02-03T07:05:24;3.85;;;2.30;;
36441;SDS011;64346;50.820;16.274;2023-02-03T07:07:52;4.50;;;2.28;;
36441;SDS011;64346;50.820;16.274;2023-02-03T07:10:19;4.65;;;2.00;;
36441;SDS011;64346;50.820;16.274;2023-02-03T07:12:47;5.45;;;2.00;;
36441;SDS011;64346;50.820;16.274;2023-02-03T07:15:14;3.70;;;1.92;;
36441;SDS011;64346;50.820;16.274;2023-02-03T07:17:44;5.32;;;1.90;;
36441;SDS011;64346;50.820;16.274;2023-02-03T07:20:13;3.92;;;1.70;;
36441;SDS011;64346;50.820;16.274;2023-02-03T07:22:40;3.72;;;1.85;;
36441;SDS011;64346;50.820;16.274;2023-02-03T07:25:08;5.05;;;2.10;;
36441;SDS011;64346;50.820;16.274;2023-02-03T07:27:38;4.68;;;2.33;;
36441;SDS011;64346;50.820;16.274;2023-02-03T07:30:05;5.32;;;2.38;;
36441;SDS011;64346;50.820;16.274;2023-02-03T07:32:33;4.78;;;2.20;;
36441;SDS011;64346;50.820;16.274;2023-02-03T07:35:00;3.60;;;2.00;;
36441;SDS011;64346;50.820;16.274;2023-02-03T07:37:27;5.93;;;2.80;;
36441;SDS011;64346;50.820;16.274;2023-02-03T07:39:54;6.40;;;2.60;;
36441;SDS011;64346;50.820;16.274;2023-02-03T07:42:21;4.13;;;2.35;;
36441;SDS011;64346;50.820;16.274;2023-02-03T07:44:49;5.72;;;2.97;;
36441;SDS011;64346;50.820;16.274;2023-02-03T07:47:16;8.35;;;2.88;;
36441;SDS011;64346;50.820;16.274;2023-02-03T07:49:46;6.75;;;2.80;;
36441;SDS011;64346;50.820;16.274;2023-02-03T07:52:13;9.57;;;4.28;;
36441;SDS011;64346;50.820;16.274;2023-02-03T07:54:43;8.65;;;3.35;;
36441;SDS011;64346;50.820;16.274;2023-02-03T07:57:12;6.20;;;2.90;;
36441;SDS011;64346;50.820;16.274;2023-02-03T07:59:39;5.50;;;2.58;;
36441;SDS011;64346;50.820;16.274;2023-02-03T08:02:09;6.13;;;2.95;;
36441;SDS011;64346;50.820;16.274;2023-02-03T08:04:37;8.02;;;3.38;;
36441;SDS011;64346;50.820;16.274;2023-02-03T08:07:06;6.30;;;2.30;;
36441;SDS011;64346;50.820;16.274;2023-02-03T08:09:33;5.65;;;2.40;;
36441;SDS011;64346;50.820;16.274;2023-02-03T08:12:01;5.45;;;2.35;;
36441;SDS011;64346;50.820;16.274;2023-02-03T08:14:29;5.65;;;2.45;;
36441;SDS011;64346;50.820;16.274;2023-02-03T08:16:58;6.55;;;2.67;;
36441;SDS011;64346;50.820;16.274;2023-02-03T08:19:25;6.65;;;2.72;;
36441;SDS011;64346;50.820;16.274;2023-02-03T08:21:55;6.40;;;2.90;;
36441;SDS011;64346;50.820;16.274;2023-02-03T08:24:22;5.72;;;2.55;;
36441;SDS011;64346;50.820;16.274;2023-02-03T08:26:49;5.80;;;2.45;;
36441;SDS011;64346;50.820;16.274;2023-02-03T08:29:17;5.97;;;2.80;;
36441;SDS011;64346;50.820;16.274;2023-02-03T08:31:46;9.63;;;3.67;;
36441;SDS011;64346;50.820;16.274;2023-02-03T08:34:14;8.30;;;3.20;;
36441;SDS011;64346;50.820;16.274;2023-02-03T08:36:41;7.68;;;2.85;;
36441;SDS011;64346;50.820;16.274;2023-02-03T08:39:09;7.38;;;2.92;;
36441;SDS011;64346;50.820;16.274;2023-02-03T08:41:37;6.82;;;3.35;;
36441;SDS011;64346;50.820;16.274;2023-02-03T08:44:07;6.68;;;2.88;;
36441;SDS011;64346;50.820;16.274;2023-02-03T08:46:34;6.63;;;3.22;;
36441;SDS011;64346;50.820;16.274;2023-02-03T08:49:02;7.25;;;3.03;;
36441;SDS011;64346;50.820;16.274;2023-02-03T08:51:29;5.72;;;2.80;;
36441;SDS011;64346;50.820;16.274;2023-02-03T08:53:56;7.40;;;2.90;;
36441;SDS011;64346;50.820;16.274;2023-02-03T08:56:23;5.85;;;2.70;;
36441;SDS011;64346;50.820;16.274;2023-02-03T08:58:51;8.05;;;2.55;;
36441;SDS011;64346;50.820;16.274;2023-02-03T09:01:25;5.72;;;2.47;;
36441;SDS011;64346;50.820;16.274;2023-02-03T09:03:55;5.78;;;2.70;;
36441;SDS011;64346;50.820;16.274;2023-02-03T09:06:25;8.57;;;2.65;;
36441;SDS011;64346;50.820;16.274;2023-02-03T09:08:52;6.80;;;2.83;;
36441;SDS011;64346;50.820;16.274;2023-02-03T09:11:19;5.90;;;2.38;;
36441;SDS011;64346;50.820;16.274;2023-02-03T09:13:47;6.80;;;2.65;;
36441;SDS011;64346;50.820;16.274;2023-02-03T09:16:15;5.95;;;2.22;;
36441;SDS011;64346;50.820;16.274;2023-02-03T09:18:44;6.03;;;2.75;;
36441;SDS011;64346;50.820;16.274;2023-02-03T09:21:14;5.95;;;2.80;;
36441;SDS011;64346;50.820;16.274;2023-02-03T09:24:03;5.32;;;2.45;;
36441;SDS011;64346;50.820;16.274;2023-02-03T09:26:31;6.68;;;2.60;;
36441;SDS011;64346;50.820;16.274;2023-02-03T09:28:58;4.55;;;2.30;;
36441;SDS011;64346;50.820;16.274;2023-02-03T09:31:28;6.65;;;2.33;;
36441;SDS011;64346;50.820;16.274;2023-02-03T09:33:55;5.40;;;2.30;;
36441;SDS011;64346;50.820;16.274;2023-02-03T09:36:23;5.38;;;2.30;;
36441;SDS011;64346;50.820;16.274;2023-02-03T09:38:51;5.32;;;2.20;;
36441;SDS011;64346;50.820;16.274;2023-02-03T09:41:26;5.82;;;2.60;;
36441;SDS011;64346;50.820;16.274;2023-02-03T09:44:23;7.50;;;2.40;;
36441;SDS011;64346;50.820;16.274;2023-02-03T09:47:03;10.80;;;3.92;;
36441;SDS011;64346;50.820;16.274;2023-02-03T09:52:20;9.00;;;2.83;;
36441;SDS011;64346;50.820;16.274;2023-02-03T09:54:54;5.55;;;2.45;;
36441;SDS011;64346;50.820;16.274;2023-02-03T09:57:27;7.03;;;2.78;;
36441;SDS011;64346;50.820;16.274;2023-02-03T10:00:01;6.95;;;2.10;;
36441;SDS011;64346;50.820;16.274;2023-02-03T10:02:42;5.22;;;2.00;;
36441;SDS011;64346;50.820;16.274;2023-02-03T10:05:17;5.15;;;2.00;;
36441;SDS011;64346;50.820;16.274;2023-02-03T10:10:25;4.85;;;1.98;;
36441;SDS011;64346;50.820;16.274;2023-02-03T10:13:01;3.97;;;1.85;;
36441;SDS011;64346;50.820;16.274;2023-02-03T10:18:32;6.05;;;2.17;;
36441;SDS011;64346;50.820;16.274;2023-02-03T10:24:01;4.93;;;2.20;;
36441;SDS011;64346;50.820;16.274;2023-02-03T10:26:31;4.13;;;1.45;;
36441;SDS011;64346;50.820;16.274;2023-02-03T10:29:05;9.50;;;3.70;;
36441;SDS011;64346;50.820;16.274;2023-02-03T10:31:45;3.85;;;1.65;;
36441;SDS011;64346;50.820;16.274;2023-02-03T10:34:16;5.90;;;2.53;;
36441;SDS011;64346;50.820;16.274;2023-02-03T10:40:11;3.70;;;1.33;;
36441;SDS011;64346;50.820;16.274;2023-02-03T10:42:43;4.25;;;2.05;;
36441;SDS011;64346;50.820;16.274;2023-02-03T10:45:13;2.42;;;1.10;;
36441;SDS011;64346;50.820;16.274;2023-02-03T10:48:04;4.57;;;1.48;;
36441;SDS011;64346;50.820;16.274;2023-02-03T10:50:34;3.17;;;1.42;;
36441;SDS011;64346;50.820;16.274;2023-02-03T10:55:44;3.17;;;1.50;;
36441;SDS011;64346;50.820;16.274;2023-02-03T10:58:24;4.15;;;1.85;;
36441;SDS011;64346;50.820;16.274;2023-02-03T11:00:55;5.72;;;1.95;;
36441;SDS011;64346;50.820;16.274;2023-02-03T11:03:30;4.18;;;1.70;;
36441;SDS011;64346;50.820;16.274;2023-02-03T11:06:08;2.75;;;1.45;;
36441;SDS011;64346;50.820;16.274;2023-02-03T11:08:36;2.10;;;1.05;;
36441;SDS011;64346;50.820;16.274;2023-02-03T11:11:06;5.78;;;2.30;;
36441;SDS011;64346;50.820;16.274;2023-02-03T11:13:38;3.25;;;1.60;;
36441;SDS011;64346;50.820;16.274;2023-02-03T11:16:06;2.38;;;1.30;;
36441;SDS011;64346;50.820;16.274;2023-02-03T11:29:36;5.15;;;1.33;;
36441;SDS011;64346;50.820;16.274;2023-02-03T11:32:21;3.35;;;1.58;;
36441;SDS011;64346;50.820;16.274;2023-02-03T11:37:32;4.95;;;1.90;;
36441;SDS011;64346;50.820;16.274;2023-02-03T11:42:35;7.43;;;2.95;;
36441;SDS011;64346;50.820;16.274;2023-02-03T11:48:06;5.93;;;1.95;;
36441;SDS011;64346;50.820;16.274;2023-02-03T11:53:52;4.53;;;1.88;;
36441;SDS011;64346;50.820;16.274;2023-02-03T12:24:50;3.47;;;1.60;;
36441;SDS011;64346;50.820;16.274;2023-02-03T12:30:08;5.47;;;2.38;;
36441;SDS011;64346;50.820;16.274;2023-02-03T12:32:54;5.25;;;1.90;;
36441;SDS011;64346;50.820;16.274;2023-02-03T12:35:36;5.15;;;2.17;;
36441;SDS011;64346;50.820;16.274;2023-02-03T12:38:28;2.67;;;1.55;;
36441;SDS011;64346;50.820;16.274;2023-02-03T12:41:03;1.90;;;0.98;;
36441;SDS011;64346;50.820;16.274;2023-02-03T12:43:41;1.20;;;0.85;;
36441;SDS011;64346;50.820;16.274;2023-02-03T12:48:58;0.98;;;0.70;;
36441;SDS011;64346;50.820;16.274;2023-02-03T12:51:44;1.70;;;0.80;;
36441;SDS011;64346;50.820;16.274;2023-02-03T12:57:49;1.60;;;0.80;;
36441;SDS011;64346;50.820;16.274;2023-02-03T13:02:55;1.17;;;0.60;;
36441;SDS011;64346;50.820;16.274;2023-02-03T13:05:32;1.52;;;0.70;;
36441;SDS011;64346;50.820;16.274;2023-02-03T13:08:13;5.43;;;1.95;;
36441;SDS011;64346;50.820;16.274;2023-02-03T13:10:45;1.20;;;0.70;;
36441;SDS011;64346;50.820;16.274;2023-02-03T13:13:18;1.27;;;0.88;;
36441;SDS011;64346;50.820;16.274;2023-02-03T13:15:51;0.65;;;0.40;;
36441;SDS011;64346;50.820;16.274;2023-02-03T13:18:23;1.95;;;0.95;;
36441;SDS011;64346;50.820;16.274;2023-02-03T13:20:51;1.52;;;0.60;;
36441;SDS011;64346;50.820;16.274;2023-02-03T13:23:20;1.65;;;0.70;;
36441;SDS011;64346;50.820;16.274;2023-02-03T13:34:28;2.38;;;0.60;;
36441;SDS011;64346;50.820;16.274;2023-02-03T13:45:57;1.77;;;1.05;;
36441;SDS011;64346;50.820;16.274;2023-02-03T13:48:26;4.07;;;1.00;;
36441;SDS011;64346;50.820;16.274;2023-02-03T13:51:12;7.73;;;2.17;;
36441;SDS011;64346;50.820;16.274;2023-02-03T13:53:43;7.97;;;2.30;;
36441;SDS011;64346;50.820;16.274;2023-02-03T13:56:20;6.15;;;2.13;;
36441;SDS011;64346;50.820;16.274;2023-02-03T13:58:59;4.60;;;1.50;;
36441;SDS011;64346;50.820;16.274;2023-02-03T14:23:27;12.70;;;2.30;;
36441;SDS011;64346;50.820;16.274;2023-02-03T14:26:03;16.13;;;5.72;;
36441;SDS011;64346;50.820;16.274;2023-02-03T14:28:38;14.15;;;3.13;;
36441;SDS011;64346;50.820;16.274;2023-02-03T14:31:23;16.15;;;5.22;;
36441;SDS011;64346;50.820;16.274;2023-02-03T14:39:01;12.80;;;2.85;;
36441;SDS011;64346;50.820;16.274;2023-02-03T14:42:02;11.18;;;3.08;;
36441;SDS011;64346;50.820;16.274;2023-02-03T14:47:09;14.38;;;2.70;;
36441;SDS011;64346;50.820;16.274;2023-02-03T14:50:15;8.57;;;2.35;;
36441;SDS011;64346;50.820;16.274;2023-02-03T14:58:40;15.52;;;3.42;;
36441;SDS011;64346;50.820;16.274;2023-02-03T15:04:19;16.42;;;3.42;;
36441;SDS011;64346;50.820;16.274;2023-02-03T15:06:47;16.80;;;3.78;;
36441;SDS011;64346;50.820;16.274;2023-02-03T15:09:39;15.52;;;3.40;;
36441;SDS011;64346;50.820;16.274;2023-02-03T15:12:22;16.27;;;3.00;;
36441;SDS011;64346;50.820;16.274;2023-02-03T15:14:52;13.77;;;2.88;;
36441;SDS011;64346;50.820;16.274;2023-02-03T15:17:21;21.20;;;3.67;;
36441;SDS011;64346;50.820;16.274;2023-02-03T15:19:52;34.95;;;3.72;;
36441;SDS011;64346;50.820;16.274;2023-02-03T15:22:23;17.27;;;3.17;;
36441;SDS011;64346;50.820;16.274;2023-02-03T15:24:56;15.00;;;3.35;;
36441;SDS011;64346;50.820;16.274;2023-02-03T15:27:31;19.42;;;4.25;;
36441;SDS011;64346;50.820;16.274;2023-02-03T15:30:13;13.52;;;3.78;;
36441;SDS011;64346;50.820;16.274;2023-02-03T15:35:33;9.68;;;3.22;;
36441;SDS011;64346;50.820;16.274;2023-02-03T15:38:05;20.90;;;3.80;;
36441;SDS011;64346;50.820;16.274;2023-02-03T15:40:44;16.58;;;3.95;;
36441;SDS011;64346;50.820;16.274;2023-02-03T15:50:50;19.38;;;3.55;;
36441;SDS011;64346;50.820;16.274;2023-02-03T15:53:50;20.00;;;5.30;;
36441;SDS011;64346;50.820;16.274;2023-02-03T15:56:29;16.85;;;3.53;;
36441;SDS011;64346;50.820;16.274;2023-02-03T16:01:55;17.95;;;4.80;;
36441;SDS011;64346;50.820;16.274;2023-02-03T16:04:23;13.27;;;2.70;;
36441;SDS011;64346;50.820;16.274;2023-02-03T16:06:51;6.32;;;1.52;;
36441;SDS011;64346;50.820;16.274;2023-02-03T16:09:38;9.20;;;1.98;;
36441;SDS011;64346;50.820;16.274;2023-02-03T16:14:52;9.15;;;2.00;;
36441;SDS011;64346;50.820;16.274;2023-02-03T16:17:34;9.95;;;2.00;;
36441;SDS011;64346;50.820;16.274;2023-02-03T16:25:27;9.80;;;2.50;;
36441;SDS011;64346;50.820;16.274;2023-02-03T16:28:00;13.18;;;3.15;;
36441;SDS011;64346;50.820;16.274;2023-02-03T16:30:28;20.40;;;3.80;;
36441;SDS011;64346;50.820;16.274;2023-02-03T16:32:59;15.48;;;3.35;;
36441;SDS011;64346;50.820;16.274;2023-02-03T16:35:36;23.73;;;6.18;;
36441;SDS011;64346;50.820;16.274;2023-02-03T16:38:04;16.15;;;3.72;;
36441;SDS011;64346;50.820;16.274;2023-02-03T16:40:33;27.15;;;5.30;;
36441;SDS011;64346;50.820;16.274;2023-02-03T16:43:00;22.17;;;4.93;;
36441;SDS011;64346;50.820;16.274;2023-02-03T16:45:28;24.88;;;5.00;;
36441;SDS011;64346;50.820;16.274;2023-02-03T16:47:56;22.30;;;4.28;;
36441;SDS011;64346;50.820;16.274;2023-02-03T16:50:23;22.90;;;4.90;;
36441;SDS011;64346;50.820;16.274;2023-02-03T16:53:03;19.88;;;4.10;;
36441;SDS011;64346;50.820;16.274;2023-02-03T16:55:31;25.67;;;5.45;;
36441;SDS011;64346;50.820;16.274;2023-02-03T16:57:59;20.67;;;4.20;;
36441;SDS011;64346;50.820;16.274;2023-02-03T17:00:26;22.02;;;4.43;;
36441;SDS011;64346;50.820;16.274;2023-02-03T17:02:53;18.15;;;3.95;;
36441;SDS011;64346;50.820;16.274;2023-02-03T17:05:24;18.40;;;3.95;;
36441;SDS011;64346;50.820;16.274;2023-02-03T17:07:55;18.23;;;4.00;;
36441;SDS011;64346;50.820;16.274;2023-02-03T17:10:25;20.65;;;5.00;;
36441;SDS011;64346;50.820;16.274;2023-02-03T17:12:55;23.02;;;3.58;;
36441;SDS011;64346;50.820;16.274;2023-02-03T17:15:22;13.88;;;3.45;;
36441;SDS011;64346;50.820;16.274;2023-02-03T17:17:49;20.63;;;5.30;;
36441;SDS011;64346;50.820;16.274;2023-02-03T17:20:17;22.08;;;4.90;;
36441;SDS011;64346;50.820;16.274;2023-02-03T17:22:44;22.30;;;4.32;;
36441;SDS011;64346;50.820;16.274;2023-02-03T17:25:12;20.23;;;4.80;;
36441;SDS011;64346;50.820;16.274;2023-02-03T17:27:39;18.17;;;3.90;;
36441;SDS011;64346;50.820;16.274;2023-02-03T17:30:09;19.05;;;4.45;;
36441;SDS011;64346;50.820;16.274;2023-02-03T17:32:39;17.40;;;4.40;;
36441;SDS011;64346;50.820;16.274;2023-02-03T17:35:07;22.10;;;4.68;;
36441;SDS011;64346;50.820;16.274;2023-02-03T17:37:36;21.80;;;4.18;;
36441;SDS011;64346;50.820;16.274;2023-02-03T17:40:04;21.98;;;4.22;;
36441;SDS011;64346;50.820;16.274;2023-02-03T17:42:49;21.08;;;3.95;;
36441;SDS011;64346;50.820;16.274;2023-02-03T17:45:39;23.63;;;5.10;;
36441;SDS011;64346;50.820;16.274;2023-02-03T17:48:24;26.02;;;4.57;;
36441;SDS011;64346;50.820;16.274;2023-02-03T17:51:15;20.75;;;4.57;;
36441;SDS011;64346;50.820;16.274;2023-02-03T17:54:07;22.27;;;4.40;;
36441;SDS011;64346;50.820;16.274;2023-02-03T17:56:37;15.40;;;3.65;;
36441;SDS011;64346;50.820;16.274;2023-02-03T17:59:06;18.30;;;4.47;;
36441;SDS011;64346;50.820;16.274;2023-02-03T18:01:35;13.35;;;3.70;;
36441;SDS011;64346;50.820;16.274;2023-02-03T18:04:05;18.95;;;4.22;;
36441;SDS011;64346;50.820;16.274;2023-02-03T18:06:33;21.20;;;4.75;;
36441;SDS011;64346;50.820;16.274;2023-02-03T18:09:05;14.45;;;3.67;;
36441;SDS011;64346;50.820;16.274;2023-02-03T18:11:33;19.65;;;3.58;;